createdAt,value
2022-11-27T00:01:01.104Z,2.93
2022-11-27T00:03:28.372Z,2.98
2022-11-27T00:05:58.237Z,2.88
2022-11-27T00:08:25.602Z,2.79
2022-11-27T00:10:52.194Z,2.82
2022-11-27T00:13:18.856Z,2.82
2022-11-27T00:15:45.690Z,2.79
2022-11-27T00:18:12.723Z,2.53
2022-11-27T00:20:39.565Z,2.42
2022-11-27T00:23:06.230Z,2.25
2022-11-27T00:25:32.781Z,2.26
2022-11-27T00:27:59.457Z,2.21
2022-11-27T00:30:25.996Z,2.24
2022-11-27T00:32:52.594Z,2.19
2022-11-27T00:35:19.153Z,2.24
2022-11-27T00:37:45.779Z,2.18
2022-11-27T00:40:12.629Z,2.12
2022-11-27T00:42:39.232Z,1.96
2022-11-27T00:45:06.105Z,1.87
2022-11-27T00:47:32.697Z,1.84
2022-11-27T00:49:59.222Z,1.72
2022-11-27T00:52:25.802Z,1.67
2022-11-27T00:54:52.419Z,1.72
2022-11-27T00:57:19.021Z,1.69
2022-11-27T00:59:45.671Z,1.68
2022-11-27T01:02:12.286Z,1.72
2022-11-27T01:04:39.146Z,1.72
2022-11-27T01:07:05.858Z,1.62
2022-11-27T01:09:32.611Z,1.59
2022-11-27T01:11:59.194Z,1.60
2022-11-27T01:14:25.737Z,1.58
2022-11-27T01:16:52.325Z,1.62
2022-11-27T01:19:19.519Z,1.58
2022-11-27T01:21:46.485Z,1.53
2022-11-27T01:24:14.943Z,1.52
2022-11-27T01:26:42.824Z,1.47
2022-11-27T01:29:09.508Z,1.40
2022-11-27T01:31:36.596Z,1.31
2022-11-27T01:34:12.735Z,1.22
2022-11-27T01:36:39.387Z,1.12
2022-11-27T01:39:05.959Z,1.13
2022-11-27T01:41:36.401Z,1.04
2022-11-27T01:44:24.895Z,1.00
2022-11-27T01:47:20.996Z,0.89
2022-11-27T01:49:54.044Z,0.86
2022-11-27T01:52:26.748Z,0.92
2022-11-27T01:55:26.039Z,0.89
2022-11-27T01:57:59.312Z,0.86
2022-11-27T02:00:26.261Z,0.80
2022-11-27T02:02:52.965Z,0.83
2022-11-27T02:05:23.432Z,0.89
2022-11-27T02:07:51.114Z,0.99
2022-11-27T02:10:18.360Z,1.04
2022-11-27T02:13:14.668Z,1.16
2022-11-27T02:15:41.166Z,1.26
2022-11-27T02:18:45.477Z,1.42
2022-11-27T02:21:42.993Z,1.45
2022-11-27T02:24:38.227Z,1.36
2022-11-27T02:27:12.000Z,1.24
2022-11-27T02:29:40.969Z,1.23
2022-11-27T02:32:12.980Z,1.18
2022-11-27T02:34:45.420Z,1.13
2022-11-27T02:37:36.553Z,1.13
2022-11-27T02:40:07.853Z,1.18
2022-11-27T02:42:43.621Z,1.20
2022-11-27T02:45:14.874Z,1.25
2022-11-27T02:47:44.917Z,1.25
2022-11-27T02:50:17.343Z,1.24
2022-11-27T02:52:45.964Z,1.16
2022-11-27T02:55:17.233Z,1.23
2022-11-27T02:57:45.693Z,1.20
2022-11-27T03:00:13.078Z,1.14
2022-11-27T03:02:44.476Z,1.13
2022-11-27T03:05:15.279Z,1.13
2022-11-27T03:07:49.848Z,1.08
2022-11-27T03:10:21.855Z,1.10
2022-11-27T03:12:49.112Z,1.20
2022-11-27T03:15:16.069Z,1.15
2022-11-27T03:18:17.015Z,1.20
2022-11-27T03:20:49.193Z,1.15
2022-11-27T03:23:15.855Z,1.11
2022-11-27T03:25:42.465Z,1.13
2022-11-27T03:28:12.362Z,1.13
2022-11-27T03:30:40.658Z,1.17
2022-11-27T03:33:25.168Z,1.09
2022-11-27T03:35:52.707Z,0.95
2022-11-27T03:38:19.394Z,0.93
2022-11-27T03:40:58.021Z,0.99
2022-11-27T03:43:29.845Z,0.99
2022-11-27T03:46:01.536Z,0.87
2022-11-27T03:48:43.428Z,0.80
2022-11-27T03:51:37.178Z,0.87
2022-11-27T03:54:13.263Z,0.79
2022-11-27T03:56:53.458Z,0.73
2022-11-27T03:59:25.516Z,0.72
2022-11-27T04:01:52.287Z,0.67
2022-11-27T04:04:18.981Z,0.66
2022-11-27T04:06:45.613Z,0.57
2022-11-27T04:09:12.217Z,0.49
2022-11-27T04:11:38.786Z,0.43
2022-11-27T04:14:06.128Z,0.41
2022-11-27T04:16:32.810Z,0.41
2022-11-27T04:18:59.416Z,0.35
2022-11-27T04:21:26.098Z,0.30
2022-11-27T04:23:52.658Z,0.37
2022-11-27T04:26:19.253Z,0.43
2022-11-27T04:28:45.836Z,0.47
2022-11-27T04:31:12.487Z,0.41
2022-11-27T04:33:39.116Z,0.44
2022-11-27T04:36:06.105Z,0.58
2022-11-27T04:38:32.705Z,0.55
2022-11-27T04:40:59.431Z,0.52
2022-11-27T04:43:26.005Z,0.48
2022-11-27T04:45:52.635Z,0.77
2022-11-27T04:48:19.301Z,1.02
2022-11-27T04:50:45.982Z,1.27
2022-11-27T04:53:12.622Z,1.53
2022-11-27T04:55:39.329Z,1.76
2022-11-27T04:58:05.887Z,1.83
2022-11-27T05:00:32.571Z,1.77
2022-11-27T05:02:59.403Z,1.98
2022-11-27T05:05:26.106Z,2.06
2022-11-27T05:07:54.274Z,2.01
2022-11-27T05:10:20.885Z,1.87
2022-11-27T05:12:47.512Z,1.76
2022-11-27T05:15:14.120Z,1.66
2022-11-27T05:17:40.705Z,1.55
2022-11-27T05:20:07.965Z,1.45
2022-11-27T05:22:34.607Z,1.29
2022-11-27T05:25:01.878Z,1.08
2022-11-27T05:27:28.550Z,0.96
2022-11-27T05:29:55.268Z,0.93
2022-11-27T05:32:21.846Z,0.82
2022-11-27T05:34:49.766Z,0.74
2022-11-27T05:37:19.786Z,0.67
2022-11-27T05:39:46.987Z,0.62
2022-11-27T05:42:13.549Z,0.43
2022-11-27T05:44:40.450Z,0.41
2022-11-27T05:47:07.272Z,0.31
2022-11-27T05:49:34.057Z,0.20
2022-11-27T05:52:00.607Z,0.13
2022-11-27T05:54:27.218Z,0.20
2022-11-27T05:56:53.832Z,0.33
2022-11-27T05:59:20.387Z,0.45
2022-11-27T06:01:49.323Z,0.52
2022-11-27T06:04:16.172Z,0.55
2022-11-27T06:06:42.925Z,0.51
2022-11-27T06:09:13.159Z,0.49
2022-11-27T06:11:40.830Z,0.49
2022-11-27T06:14:08.951Z,0.44
2022-11-27T06:16:35.952Z,0.43
2022-11-27T06:19:02.917Z,0.37
2022-11-27T06:21:29.485Z,0.36
2022-11-27T06:23:56.865Z,0.50
2022-11-27T06:26:29.520Z,0.73
2022-11-27T06:28:57.717Z,0.70
2022-11-27T06:31:30.623Z,0.78
2022-11-27T06:33:57.703Z,0.71
2022-11-27T06:36:31.510Z,0.73
2022-11-27T06:38:58.207Z,0.79
2022-11-27T06:41:27.232Z,0.87
2022-11-27T06:43:55.099Z,1.13
2022-11-27T06:46:23.390Z,1.32
2022-11-27T06:48:52.378Z,1.31
2022-11-27T06:51:21.788Z,1.41
2022-11-27T06:53:48.826Z,1.49
2022-11-27T06:56:21.632Z,1.47
2022-11-27T06:58:54.942Z,1.47
2022-11-27T07:01:23.074Z,1.62
2022-11-27T07:03:49.706Z,1.66
2022-11-27T07:06:21.894Z,1.83
2022-11-27T07:08:48.580Z,1.81
2022-11-27T07:11:18.449Z,1.80
2022-11-27T07:13:49.468Z,1.86
2022-11-27T07:16:16.948Z,1.94
2022-11-27T07:18:46.882Z,2.11
2022-11-27T07:21:14.077Z,2.16
2022-11-27T07:23:41.003Z,2.17
2022-11-27T07:26:19.632Z,2.13
2022-11-27T07:28:46.927Z,2.21
2022-11-27T07:31:17.047Z,2.19
2022-11-27T07:33:43.936Z,2.22
2022-11-27T07:36:22.404Z,2.17
2022-11-27T07:38:49.593Z,2.21
2022-11-27T07:41:17.152Z,2.21
2022-11-27T07:43:45.443Z,2.42
2022-11-27T07:46:20.871Z,2.42
2022-11-27T07:48:47.591Z,2.77
2022-11-27T07:51:16.791Z,2.80
2022-11-27T07:53:43.917Z,2.80
2022-11-27T07:56:14.723Z,2.81
2022-11-27T07:58:41.427Z,2.91
2022-11-27T08:01:10.035Z,3.02
2022-11-27T08:03:37.965Z,2.99
2022-11-27T08:06:05.274Z,3.08
2022-11-27T08:08:33.446Z,3.08
2022-11-27T08:10:59.995Z,3.14
2022-11-27T08:13:26.632Z,3.12
2022-11-27T08:15:53.321Z,3.15
2022-11-27T08:18:19.923Z,3.20
2022-11-27T08:20:46.588Z,3.30
2022-11-27T08:23:13.193Z,3.46
2022-11-27T08:25:39.887Z,3.67
2022-11-27T08:28:06.516Z,3.86
2022-11-27T08:30:33.152Z,4.09
2022-11-27T08:32:59.725Z,4.30
2022-11-27T08:35:26.380Z,4.43
2022-11-27T08:37:53.136Z,4.58
2022-11-27T08:40:19.888Z,4.74
2022-11-27T08:42:46.508Z,4.99
2022-11-27T08:45:13.236Z,5.17
2022-11-27T08:47:39.980Z,5.39
2022-11-27T08:50:07.338Z,5.48
2022-11-27T08:52:33.993Z,5.77
2022-11-27T08:55:00.625Z,6.07
2022-11-27T08:57:27.223Z,6.31
2022-11-27T08:59:53.870Z,6.66
2022-11-27T09:02:20.540Z,6.99
2022-11-27T09:04:47.181Z,7.34
2022-11-27T09:07:15.553Z,7.28
2022-11-27T09:09:42.229Z,7.68
2022-11-27T09:12:08.806Z,8.29
2022-11-27T09:14:35.419Z,8.54
2022-11-27T09:17:02.201Z,8.80
2022-11-27T09:19:28.968Z,8.48
2022-11-27T09:21:56.340Z,8.73
2022-11-27T09:24:23.015Z,8.80
2022-11-27T09:26:49.593Z,8.14
2022-11-27T09:29:16.212Z,7.92
2022-11-27T09:31:42.849Z,7.83
2022-11-27T09:34:09.578Z,8.23
2022-11-27T09:36:36.480Z,8.52
2022-11-27T09:39:03.903Z,8.64
2022-11-27T09:41:42.573Z,8.64
2022-11-27T09:44:23.710Z,9.32
2022-11-27T09:46:51.361Z,9.61
2022-11-27T09:49:35.454Z,9.61
2022-11-27T09:52:23.773Z,9.48
2022-11-27T09:55:01.752Z,9.28
2022-11-27T09:57:33.348Z,9.22
2022-11-27T10:00:07.402Z,8.93
2022-11-27T10:02:35.431Z,8.82
2022-11-27T10:05:15.462Z,8.81
2022-11-27T10:08:10.077Z,9.15
2022-11-27T10:11:01.769Z,9.06
2022-11-27T10:13:31.341Z,8.92
2022-11-27T10:16:09.341Z,8.83
2022-11-27T10:18:46.702Z,8.78
2022-11-27T10:21:40.931Z,8.91
2022-11-27T10:24:19.244Z,8.88
2022-11-27T10:26:48.558Z,9.05
2022-11-27T10:29:30.904Z,9.30
2022-11-27T10:32:04.320Z,9.49
2022-11-27T10:34:30.915Z,9.70
2022-11-27T10:37:01.025Z,9.74
2022-11-27T10:39:41.781Z,9.76
2022-11-27T10:42:21.060Z,9.52
2022-11-27T10:44:53.679Z,9.25
2022-11-27T10:47:23.238Z,9.30
2022-11-27T10:49:50.072Z,9.27
2022-11-27T10:52:19.343Z,9.16
2022-11-27T10:54:53.116Z,9.08
2022-11-27T10:57:22.649Z,9.05
2022-11-27T10:59:55.339Z,9.15
2022-11-27T11:02:28.076Z,9.15
2022-11-27T11:05:24.226Z,9.07
2022-11-27T11:07:41.755Z,9.11
2022-11-27T11:10:26.484Z,8.87
2022-11-27T11:13:11.792Z,8.69
2022-11-27T11:16:04.793Z,8.79
2022-11-27T11:18:35.149Z,8.80
2022-11-27T11:21:07.181Z,8.94
2022-11-27T11:23:40.380Z,8.95
2022-11-27T11:26:32.384Z,8.98
2022-11-27T11:29:02.129Z,8.94
2022-11-27T11:31:37.012Z,8.93
2022-11-27T11:34:23.958Z,8.93
2022-11-27T11:36:58.748Z,8.82
2022-11-27T11:39:31.982Z,8.88
2022-11-27T11:41:59.087Z,8.97
2022-11-27T11:44:35.577Z,8.88
2022-11-27T11:47:02.432Z,8.88
2022-11-27T11:49:33.490Z,8.98
2022-11-27T11:52:22.235Z,9.13
2022-11-27T11:54:49.690Z,9.22
2022-11-27T11:57:25.562Z,9.32
2022-11-27T11:59:52.074Z,9.39
2022-11-27T12:02:50.359Z,9.29
2022-11-27T12:05:26.040Z,9.34
2022-11-27T12:08:15.521Z,9.35
2022-11-27T12:11:03.258Z,9.38
2022-11-27T12:13:54.569Z,9.27
2022-11-27T12:16:50.514Z,9.18
2022-11-27T12:19:25.952Z,9.34
2022-11-27T12:22:37.415Z,9.25
2022-11-27T12:25:10.086Z,9.17
2022-11-27T12:28:03.446Z,9.11
2022-11-27T12:30:58.907Z,8.98
2022-11-27T12:33:38.318Z,8.96
2022-11-27T12:36:18.193Z,9.07
2022-11-27T12:38:59.980Z,8.89
2022-11-27T12:41:59.148Z,8.88
2022-11-27T12:44:51.589Z,8.89
2022-11-27T12:47:18.214Z,8.90
2022-11-27T12:49:49.379Z,8.94
2022-11-27T12:52:22.581Z,8.94
2022-11-27T12:54:58.702Z,8.74
2022-11-27T12:57:39.526Z,8.76
2022-11-27T13:00:14.711Z,8.83
2022-11-27T13:02:49.966Z,8.83
2022-11-27T13:05:22.835Z,8.72
2022-11-27T13:07:55.767Z,8.74
2022-11-27T13:10:38.371Z,8.68
2022-11-27T13:13:10.331Z,8.75
2022-11-27T13:15:54.917Z,8.81
2022-11-27T13:18:30.419Z,8.82
2022-11-27T13:21:01.285Z,8.67
2022-11-27T13:23:32.935Z,8.65
2022-11-27T13:26:05.489Z,8.61
2022-11-27T13:28:46.431Z,8.64
2022-11-27T13:31:27.157Z,8.58
2022-11-27T13:34:00.561Z,8.64
2022-11-27T13:36:37.241Z,8.58
2022-11-27T13:39:04.024Z,8.46
2022-11-27T13:41:40.299Z,8.38
2022-11-27T13:44:27.921Z,8.32
2022-11-27T13:47:04.462Z,8.31
2022-11-27T13:49:34.070Z,8.27
2022-11-27T13:52:11.761Z,8.12
2022-11-27T13:54:39.413Z,8.03
2022-11-27T13:57:17.618Z,8.04
2022-11-27T14:00:00.064Z,7.94
2022-11-27T14:02:44.226Z,7.91
2022-11-27T14:05:12.951Z,7.89
2022-11-27T14:07:43.445Z,7.92
2022-11-27T14:10:15.722Z,7.92
2022-11-27T14:12:54.831Z,7.82
2022-11-27T14:15:25.526Z,7.87
2022-11-27T14:18:04.440Z,7.80
2022-11-27T14:20:35.144Z,7.81
2022-11-27T14:23:17.277Z,7.78
2022-11-27T14:25:43.910Z,7.72
2022-11-27T14:28:26.036Z,7.74
2022-11-27T14:30:56.949Z,7.72
2022-11-27T14:33:28.464Z,7.65
2022-11-27T14:35:57.337Z,7.62
2022-11-27T14:38:25.688Z,7.66
2022-11-27T14:40:54.166Z,7.53
2022-11-27T14:43:28.277Z,7.49
2022-11-27T14:46:01.409Z,7.43
2022-11-27T14:48:34.411Z,7.38
2022-11-27T14:51:01.664Z,7.33
2022-11-27T14:53:29.303Z,7.17
2022-11-27T14:55:58.486Z,7.16
2022-11-27T14:58:28.542Z,7.13
2022-11-27T15:01:07.200Z,7.15
2022-11-27T15:03:34.626Z,7.06
2022-11-27T15:06:07.619Z,6.93
2022-11-27T15:08:37.850Z,6.77
2022-11-27T15:11:05.907Z,6.74
2022-11-27T15:13:36.677Z,6.70
2022-11-27T15:16:14.801Z,6.58
2022-11-27T15:18:43.161Z,6.45
2022-11-27T15:21:12.864Z,6.42
2022-11-27T15:23:46.261Z,6.41
2022-11-27T15:26:28.587Z,6.45
2022-11-27T15:28:57.446Z,6.45
2022-11-27T15:31:33.237Z,6.46
2022-11-27T15:34:13.576Z,6.37
2022-11-27T15:37:03.888Z,6.39
2022-11-27T15:39:51.807Z,6.43
2022-11-27T15:42:20.061Z,6.38
2022-11-27T15:44:48.083Z,6.38
2022-11-27T15:47:33.195Z,6.32
2022-11-27T15:50:00.197Z,6.26
2022-11-27T15:52:27.520Z,6.17
2022-11-27T15:54:55.358Z,6.30
2022-11-27T15:57:22.185Z,6.23
2022-11-27T15:59:48.871Z,6.16
2022-11-27T16:02:18.033Z,6.21
2022-11-27T16:04:45.197Z,6.14
2022-11-27T16:07:11.898Z,6.18
2022-11-27T16:09:39.773Z,6.20
2022-11-27T16:12:06.919Z,6.23
2022-11-27T16:14:33.571Z,6.20
2022-11-27T16:17:01.568Z,6.20
2022-11-27T16:19:28.776Z,6.16
2022-11-27T16:21:55.484Z,6.06
2022-11-27T16:24:22.001Z,5.97
2022-11-27T16:26:48.699Z,5.98
2022-11-27T16:29:15.412Z,6.01
2022-11-27T16:31:42.065Z,5.90
2022-11-27T16:34:11.590Z,5.84
2022-11-27T16:36:41.439Z,5.89
2022-11-27T16:39:08.068Z,5.87
2022-11-27T16:41:34.800Z,6.03
2022-11-27T16:44:01.512Z,5.99
2022-11-27T16:46:30.390Z,5.96
2022-11-27T16:48:59.224Z,5.78
2022-11-27T16:51:28.762Z,5.71
2022-11-27T16:53:57.208Z,5.70
2022-11-27T16:56:26.371Z,5.64
2022-11-27T16:58:56.736Z,5.60
2022-11-27T17:01:29.967Z,5.61
2022-11-27T17:03:57.396Z,5.66
2022-11-27T17:06:30.038Z,5.62
2022-11-27T17:08:59.176Z,5.58
2022-11-27T17:11:28.959Z,5.61
2022-11-27T17:14:01.476Z,5.64
2022-11-27T17:16:28.787Z,5.59
2022-11-27T17:18:55.647Z,5.59
2022-11-27T17:21:25.322Z,5.49
2022-11-27T17:23:55.277Z,5.48
2022-11-27T17:26:23.695Z,5.41
2022-11-27T17:28:50.693Z,5.44
2022-11-27T17:31:19.742Z,5.50
2022-11-27T17:33:47.568Z,5.43
2022-11-27T17:36:15.749Z,5.45
2022-11-27T17:38:42.328Z,5.43
2022-11-27T17:41:11.509Z,5.38
2022-11-27T17:43:39.453Z,5.45
2022-11-27T17:46:21.577Z,5.44
2022-11-27T17:48:48.203Z,5.44
2022-11-27T17:51:15.125Z,5.45
2022-11-27T17:53:41.713Z,5.47
2022-11-27T17:56:10.706Z,5.47
2022-11-27T17:58:37.801Z,5.37
2022-11-27T18:01:06.172Z,5.33
2022-11-27T18:03:33.850Z,5.34
2022-11-27T18:06:05.223Z,5.28
2022-11-27T18:08:32.858Z,5.23
2022-11-27T18:11:06.770Z,5.22
2022-11-27T18:13:33.543Z,5.14
2022-11-27T18:16:24.723Z,5.07
2022-11-27T18:18:51.713Z,5.07
2022-11-27T18:21:20.614Z,5.12
2022-11-27T18:24:21.410Z,5.15
2022-11-27T18:27:06.599Z,5.12
2022-11-27T18:29:23.588Z,5.07
2022-11-27T18:31:51.180Z,5.12
2022-11-27T18:34:18.155Z,5.05
2022-11-27T18:36:46.024Z,5.01
2022-11-27T18:39:13.075Z,5.05
2022-11-27T18:41:40.215Z,5.04
2022-11-27T18:44:06.803Z,5.09
2022-11-27T18:46:33.835Z,5.11
2022-11-27T18:49:00.451Z,5.09
2022-11-27T18:51:27.118Z,5.00
2022-11-27T18:53:54.693Z,5.03
2022-11-27T18:56:27.150Z,4.93
2022-11-27T18:58:54.221Z,4.86
2022-11-27T19:01:23.798Z,4.92
2022-11-27T19:03:50.772Z,4.93
2022-11-27T19:06:20.066Z,4.90
2022-11-27T19:08:47.184Z,4.86
2022-11-27T19:11:17.931Z,4.84
2022-11-27T19:13:45.702Z,4.82
2022-11-27T19:16:15.514Z,4.86
2022-11-27T19:18:43.023Z,4.94
2022-11-27T19:21:14.490Z,4.97
2022-11-27T19:23:41.514Z,4.94
2022-11-27T19:26:14.190Z,4.89
2022-11-27T19:28:41.320Z,4.83
2022-11-27T19:31:10.693Z,4.78
2022-11-27T19:33:37.885Z,4.86
2022-11-27T19:36:08.661Z,4.81
2022-11-27T19:38:36.167Z,4.79
2022-11-27T19:41:04.419Z,4.85
2022-11-27T19:43:31.150Z,4.72
2022-11-27T19:45:58.290Z,4.69
2022-11-27T19:48:24.954Z,4.83
2022-11-27T19:50:52.003Z,4.83
2022-11-27T19:53:18.974Z,4.78
2022-11-27T19:55:53.361Z,4.65
2022-11-27T19:58:20.000Z,4.75
2022-11-27T20:00:46.889Z,4.72
2022-11-27T20:03:13.502Z,4.79
2022-11-27T20:05:40.099Z,4.83
2022-11-27T20:08:06.710Z,4.73
2022-11-27T20:10:33.314Z,4.78
2022-11-27T20:13:01.637Z,4.80
2022-11-27T20:15:28.759Z,4.76
2022-11-27T20:17:55.684Z,4.83
2022-11-27T20:20:22.272Z,4.80
2022-11-27T20:22:50.353Z,4.78
2022-11-27T20:25:20.009Z,4.74
2022-11-27T20:27:47.190Z,4.69
2022-11-27T20:30:13.987Z,4.73
2022-11-27T20:32:40.744Z,4.68
2022-11-27T20:35:07.750Z,4.68
2022-11-27T20:37:35.048Z,4.63
2022-11-27T20:40:01.767Z,4.63
2022-11-27T20:42:28.439Z,4.63
2022-11-27T20:44:55.023Z,4.53
2022-11-27T20:47:21.590Z,4.69
2022-11-27T20:49:48.233Z,4.63
2022-11-27T20:52:14.970Z,4.62
2022-11-27T20:54:41.585Z,4.55
2022-11-27T20:57:14.047Z,4.56
2022-11-27T20:59:41.736Z,4.60
2022-11-27T21:02:12.262Z,4.59
2022-11-27T21:04:39.010Z,4.63
2022-11-27T21:07:05.708Z,4.61
2022-11-27T21:09:32.730Z,4.68
2022-11-27T21:11:59.667Z,4.75
2022-11-27T21:14:26.279Z,4.68
2022-11-27T21:16:53.977Z,4.71
2022-11-27T21:19:24.447Z,4.69
2022-11-27T21:21:52.380Z,4.71
2022-11-27T21:24:20.492Z,4.80
2022-11-27T21:26:48.301Z,4.88
2022-11-27T21:29:15.632Z,4.71
2022-11-27T21:31:46.388Z,4.71
2022-11-27T21:34:16.281Z,4.71
2022-11-27T21:36:42.822Z,4.76
2022-11-27T21:39:12.144Z,4.78
2022-11-27T21:41:38.699Z,4.91
2022-11-27T21:44:05.595Z,4.87
2022-11-27T21:46:32.475Z,4.86
2022-11-27T21:49:00.970Z,4.83
2022-11-27T21:51:29.226Z,4.83
2022-11-27T21:53:57.079Z,4.90
2022-11-27T21:56:26.341Z,4.95
2022-11-27T21:58:52.974Z,4.94
2022-11-27T22:01:22.325Z,4.86
2022-11-27T22:03:51.566Z,4.94
2022-11-27T22:06:18.898Z,5.03
2022-11-27T22:08:47.181Z,4.96
2022-11-27T22:11:28.864Z,4.93
2022-11-27T22:13:56.396Z,4.94
2022-11-27T22:16:24.509Z,4.88
2022-11-27T22:18:53.761Z,4.92
2022-11-27T22:21:20.437Z,4.95
2022-11-27T22:23:47.174Z,4.92
2022-11-27T22:26:19.285Z,4.81
2022-11-27T22:28:46.419Z,4.75
2022-11-27T22:31:21.687Z,4.72
2022-11-27T22:33:48.733Z,4.77
2022-11-27T22:36:17.027Z,4.82
2022-11-27T22:38:45.092Z,4.71
2022-11-27T22:41:12.360Z,4.78
2022-11-27T22:43:39.549Z,4.85
2022-11-27T22:46:08.729Z,4.93
2022-11-27T22:48:35.351Z,4.92
2022-11-27T22:51:02.091Z,4.99
2022-11-27T22:53:28.857Z,5.03
2022-11-27T22:55:55.705Z,5.02
2022-11-27T22:58:22.749Z,5.04
2022-11-27T23:00:56.506Z,4.98
2022-11-27T23:03:23.583Z,5.04
2022-11-27T23:05:50.455Z,5.04
2022-11-27T23:08:18.956Z,5.03
2022-11-27T23:10:47.382Z,5.07
2022-11-27T23:13:15.229Z,5.04
2022-11-27T23:15:42.679Z,5.02
2022-11-27T23:18:09.798Z,5.00
2022-11-27T23:20:43.651Z,5.17
2022-11-27T23:23:11.112Z,5.17
2022-11-27T23:25:38.699Z,5.22
2022-11-27T23:28:05.688Z,5.30
2022-11-27T23:30:33.783Z,5.27
2022-11-27T23:33:00.457Z,5.32
2022-11-27T23:35:27.167Z,5.24
2022-11-27T23:37:53.823Z,5.28
2022-11-27T23:40:20.498Z,5.41
2022-11-27T23:42:47.168Z,5.34
2022-11-27T23:45:13.824Z,5.31
2022-11-27T23:47:40.590Z,5.28
2022-11-27T23:50:07.835Z,5.27
2022-11-27T23:52:34.597Z,5.27
2022-11-27T23:55:01.442Z,5.21
2022-11-27T23:57:28.069Z,5.23
2022-11-27T23:59:54.619Z,5.21
